Time;durP1;ratioP1;P1;durP2;ratioP2;P2;SDS_P1;SDS_P2;PMS_P1;PMS_P2;Temp;Humidity;BMP_temperature;BMP_pressure;BME280_temperature;BME280_humidity;BME280_pressure;Samples;Min_cycle;Max_cycle;Signal;HPM_P1;HPM_P2
2023/02/03 00:01:53;;;;;;;;;;;25.80;94.40;;;;;;5014384;28;19930;-63
2023/02/03 00:04:19;;;;;;;;;;;26.10;94.80;;;;;;5014179;28;19916;-61
2023/02/03 00:06:46;;;;;;;;;;;26.10;94.60;;;;;;5014000;28;20512;-61
2023/02/03 00:09:14;;;;;;;;;;;26.00;94.30;;;;;;5013738;28;19963;-61
2023/02/03 00:11:40;;;;;;;;;;;26.00;93.60;;;;;;5014424;28;19910;-61
2023/02/03 00:14:07;;;;;;;;;;;25.90;94.20;;;;;;5014439;28;19914;-61
2023/02/03 00:16:34;;;;;;;;;;;26.00;93.80;;;;;;5012890;28;20472;-60
2023/02/03 00:19:00;;;;;;;;;;;26.10;94.20;;;;;;5014149;28;19913;-60
2023/02/03 00:21:27;;;;;;;;;;;26.20;93.90;;;;;;5013915;28;20287;-60
2023/02/03 00:23:54;;;;;;;;;;;26.40;93.40;;;;;;5013929;28;19910;-60
2023/02/03 00:26:21;;;;;;;;;;;26.50;93.20;;;;;;5013828;28;20311;-64
2023/02/03 00:28:47;;;;;;;;;;;26.30;93.10;;;;;;5013822;28;20319;-63
2023/02/03 00:31:17;;;;;;;;;;;26.40;93.80;;;;;;5013794;28;19992;-62
2023/02/03 00:33:44;;;;;;;;;;;26.50;93.60;;;;;;5013702;28;19909;-61
2023/02/03 00:36:11;;;;;;;;;;;26.50;94.00;;;;;;5013722;28;20368;-61
2023/02/03 00:38:38;;;;;;;;;;;26.40;93.90;;;;;;5013767;28;19972;-62
2023/02/03 00:41:06;;;;;;;;;;;26.50;93.30;;;;;;5013700;28;19910;-60
2023/02/03 00:43:33;;;;;;;;;;;26.60;93.00;;;;;;5013432;28;19913;-60
2023/02/03 00:46:00;;;;;;;;;;;26.60;93.40;;;;;;5013356;28;19980;-66
2023/02/03 00:48:26;;;;;;;;;;;26.80;92.70;;;;;;5012929;28;20317;-59
2023/02/03 00:50:53;;;;;;;;;;;26.80;93.20;;;;;;5013722;28;19955;-58
2023/02/03 00:53:19;;;;;;;;;;;26.60;93.60;;;;;;5013158;28;19920;-61
2023/02/03 00:55:46;;;;;;;;;;;26.90;93.70;;;;;;5013239;28;19920;-59
2023/02/03 00:58:13;;;;;;;;;;;27.00;92.70;;;;;;5012716;28;19975;-61
2023/02/03 01:00:39;;;;;;;;;;;27.20;93.00;;;;;;5013062;28;19913;-60
2023/02/03 01:03:06;;;;;;;;;;;27.30;92.50;;;;;;5013108;28;20013;-63
2023/02/03 01:05:33;;;;;;;;;;;27.40;93.40;;;;;;5012747;28;19920;-60
2023/02/03 01:08:00;;;;;;;;;;;27.70;93.10;;;;;;5012808;28;19936;-63
2023/02/03 01:10:29;;;;;;;;;;;27.70;92.80;;;;;;5013180;28;19916;-61
2023/02/03 01:12:56;;;;;;;;;;;27.80;93.30;;;;;;5013270;28;19914;-61
2023/02/03 01:15:23;;;;;;;;;;;27.90;93.10;;;;;;5013122;28;20016;-60
2023/02/03 01:17:49;;;;;;;;;;;28.30;92.60;;;;;;5012799;28;20288;-61
2023/02/03 01:20:16;;;;;;;;;;;28.70;92.70;;;;;;5013239;28;19913;-61
2023/02/03 01:22:43;;;;;;;;;;;29.10;91.60;;;;;;5012798;28;19913;-61
2023/02/03 01:25:09;;;;;;;;;;;29.70;92.20;;;;;;5012639;28;19913;-62
2023/02/03 01:27:36;;;;;;;;;;;30.60;91.20;;;;;;5012116;28;19914;-63
2023/02/03 01:30:03;;;;;;;;;;;31.10;90.60;;;;;;5011580;28;20372;-63
2023/02/03 01:32:30;;;;;;;;;;;31.10;90.20;;;;;;5012687;28;19921;-62
2023/02/03 01:34:56;;;;;;;;;;;31.30;90.10;;;;;;5012705;28;20407;-62
2023/02/03 01:37:23;;;;;;;;;;;31.20;88.90;;;;;;5012161;28;19928;-60
2023/02/03 01:39:49;;;;;;;;;;;30.80;89.20;;;;;;5012572;28;20415;-61
2023/02/03 01:42:16;;;;;;;;;;;30.80;90.00;;;;;;5012470;28;20043;-60
2023/02/03 01:44:45;;;;;;;;;;;31.20;89.40;;;;;;5012487;28;19909;-61
2023/02/03 01:47:14;;;;;;;;;;;30.30;88.50;;;;;;5012097;28;19955;-61
2023/02/03 01:49:44;;;;;;;;;;;30.00;90.90;;;;;;5012497;28;19920;-63
2023/02/03 01:52:11;;;;;;;;;;;30.10;90.40;;;;;;5012438;28;20277;-63
2023/02/03 01:54:40;;;;;;;;;;;29.60;89.40;;;;;;5012384;28;19913;-61
2023/02/03 01:57:12;;;;;;;;;;;30.00;91.00;;;;;;5011836;28;19917;-61
2023/02/03 01:59:39;;;;;;;;;;;30.50;90.20;;;;;;5012473;28;20439;-61
2023/02/03 02:02:06;;;;;;;;;;;30.40;90.10;;;;;;5012026;28;19921;-63
2023/02/03 02:04:55;;;;;;;;;;;30.30;90.20;;;;;;5012179;28;20265;-62
2023/02/03 02:07:24;;;;;;;;;;;29.90;90.50;;;;;;5006432;28;19917;-61
2023/02/03 02:09:51;;;;;;;;;;;29.60;90.80;;;;;;5012164;28;20095;-61
2023/02/03 02:12:17;;;;;;;;;;;29.30;90.80;;;;;;5012144;28;19910;-61
2023/02/03 02:14:45;;;;;;;;;;;29.20;91.10;;;;;;5011953;28;19948;-61
2023/02/03 02:17:32;;;;;;;;;;;29.00;92.30;;;;;;5011664;28;19964;-64
2023/02/03 02:20:24;;;;;;;;;;;29.20;92.20;;;;;;5011781;28;19909;-61
2023/02/03 02:22:59;;;;;;;;;;;29.30;91.00;;;;;;5012158;28;20000;-61
2023/02/03 02:25:47;;;;;;;;;;;29.20;91.10;;;;;;5011871;28;19909;-60
2023/02/03 02:28:32;;;;;;;;;;;29.00;90.90;;;;;;5011578;28;20379;-61
2023/02/03 02:31:05;;;;;;;;;;;28.80;91.30;;;;;;5011913;28;19917;-60
2023/02/03 02:33:40;;;;;;;;;;;28.80;91.30;;;;;;5011496;28;19909;-60
2023/02/03 02:36:07;;;;;;;;;;;28.30;90.90;;;;;;5011621;28;20043;-60
2023/02/03 02:38:57;;;;;;;;;;;28.20;92.70;;;;;;5012256;28;19918;-61
2023/02/03 02:41:24;;;;;;;;;;;28.50;92.20;;;;;;5010493;28;19909;-61
2023/02/03 02:44:08;;;;;;;;;;;28.60;91.70;;;;;;5015843;28;19949;-60
2023/02/03 02:46:35;;;;;;;;;;;29.00;91.30;;;;;;5015594;28;19910;-60
2023/02/03 02:49:20;;;;;;;;;;;28.90;91.40;;;;;;5015697;28;19910;-60
2023/02/03 02:51:47;;;;;;;;;;;29.00;91.70;;;;;;5015681;28;20000;-60
2023/02/03 02:54:23;;;;;;;;;;;28.80;91.30;;;;;;5015706;28;19913;-60
2023/02/03 02:56:52;;;;;;;;;;;28.80;91.30;;;;;;5015150;28;20011;-62
2023/02/03 02:59:20;;;;;;;;;;;29.00;90.90;;;;;;5015506;28;19914;-62
2023/02/03 03:01:46;;;;;;;;;;;28.80;91.70;;;;;;5015343;28;19933;-60
2023/02/03 03:04:14;;;;;;;;;;;28.80;91.60;;;;;;5015233;28;19920;-61
2023/02/03 03:06:44;;;;;;;;;;;29.10;91.50;;;;;;5015081;28;19914;-60
2023/02/03 03:09:12;;;;;;;;;;;29.20;90.40;;;;;;5015562;28;19952;-60
2023/02/03 03:11:42;;;;;;;;;;;29.20;89.90;;;;;;5015433;28;19909;-60
2023/02/03 03:14:10;;;;;;;;;;;29.30;90.40;;;;;;5015381;28;19914;-60
2023/02/03 03:16:38;;;;;;;;;;;29.20;90.40;;;;;;5015066;28;19967;-63
2023/02/03 03:19:07;;;;;;;;;;;29.30;90.50;;;;;;5015206;28;20067;-62
2023/02/03 03:21:37;;;;;;;;;;;29.30;90.50;;;;;;5015213;28;19917;-60
2023/02/03 03:24:06;;;;;;;;;;;29.30;90.90;;;;;;5015071;28;19921;-60
2023/02/03 03:27:02;;;;;;;;;;;29.20;90.60;;;;;;5014677;28;19920;-61
2023/02/03 03:29:30;;;;;;;;;;;29.10;91.10;;;;;;5005822;28;19960;-60
2023/02/03 03:31:57;;;;;;;;;;;29.10;90.60;;;;;;5014775;28;19980;-61
2023/02/03 03:34:24;;;;;;;;;;;29.00;90.10;;;;;;5014976;28;20226;-63
2023/02/03 03:37:00;;;;;;;;;;;29.30;89.50;;;;;;5014276;28;20469;-63
2023/02/03 03:40:05;;;;;;;;;;;29.30;90.40;;;;;;5014673;28;19996;-61
2023/02/03 03:43:00;;;;;;;;;;;29.10;90.40;;;;;;4973373;28;19957;-62
2023/02/03 03:45:45;;;;;;;;;;;28.90;90.00;;;;;;4960906;28;19965;-62
2023/02/03 03:48:12;;;;;;;;;;;28.90;89.70;;;;;;5006202;28;19917;-63
2023/02/03 03:50:42;;;;;;;;;;;28.90;90.80;;;;;;5013095;28;19937;-63
2023/02/03 03:53:10;;;;;;;;;;;29.10;92.30;;;;;;5014628;28;19992;-62
2023/02/03 03:55:37;;;;;;;;;;;29.00;94.50;;;;;;5014248;28;19964;-63
2023/02/03 03:58:07;;;;;;;;;;;28.90;94.90;;;;;;5014131;28;20344;-64
2023/02/03 04:00:34;;;;;;;;;;;28.80;94.80;;;;;;5014207;28;20362;-66
2023/02/03 04:03:27;;;;;;;;;;;28.60;94.90;;;;;;5014232;28;20008;-62
2023/02/03 04:05:53;;;;;;;;;;;28.30;94.70;;;;;;4997946;28;19945;-62
2023/02/03 04:08:20;;;;;;;;;;;28.10;94.60;;;;;;5014275;28;19964;-62
2023/02/03 04:10:47;;;;;;;;;;;27.90;95.20;;;;;;5013977;28;19913;-62
2023/02/03 04:13:14;;;;;;;;;;;28.00;95.10;;;;;;5013526;28;19910;-63
2023/02/03 04:15:41;;;;;;;;;;;27.80;94.80;;;;;;5029485;28;20264;-64
2023/02/03 04:18:10;;;;;;;;;;;27.70;94.80;;;;;;5013611;28;20281;-62
2023/02/03 04:20:37;;;;;;;;;;;27.60;95.40;;;;;;5014135;28;20399;-63
2023/02/03 04:23:03;;;;;;;;;;;27.60;95.10;;;;;;5014197;28;19921;-65
2023/02/03 04:25:30;;;;;;;;;;;27.50;94.70;;;;;;5013694;28;19999;-62
2023/02/03 04:27:57;;;;;;;;;;;27.30;95.50;;;;;;5013703;28;20307;-61
2023/02/03 04:30:23;;;;;;;;;;;27.50;95.40;;;;;;5013942;28;19910;-62
2023/02/03 04:32:50;;;;;;;;;;;27.30;95.20;;;;;;5013651;28;19909;-61
2023/02/03 04:35:17;;;;;;;;;;;27.10;96.30;;;;;;5013718;28;19914;-61
2023/02/03 04:37:44;;;;;;;;;;;27.20;96.10;;;;;;5013473;28;19925;-60
2023/02/03 04:40:11;;;;;;;;;;;27.20;96.50;;;;;;5013796;28;20235;-60
2023/02/03 04:42:38;;;;;;;;;;;27.10;96.50;;;;;;5013611;28;19988;-62
2023/02/03 04:45:05;;;;;;;;;;;27.00;97.50;;;;;;5013856;28;19920;-61
2023/02/03 04:47:32;;;;;;;;;;;27.10;97.00;;;;;;5012942;28;20445;-61
2023/02/03 04:49:59;;;;;;;;;;;27.00;96.40;;;;;;5013665;28;20012;-60
2023/02/03 04:52:26;;;;;;;;;;;27.00;97.20;;;;;;5013619;28;19910;-60
2023/02/03 04:54:52;;;;;;;;;;;27.00;96.90;;;;;;5013501;28;19914;-60
2023/02/03 04:57:19;;;;;;;;;;;27.10;96.60;;;;;;5012831;28;19971;-60
2023/02/03 04:59:46;;;;;;;;;;;26.80;96.00;;;;;;5013402;28;19909;-60
2023/02/03 05:02:13;;;;;;;;;;;26.50;96.50;;;;;;5012768;28;19929;-60
2023/02/03 05:04:39;;;;;;;;;;;26.50;96.80;;;;;;5013458;28;20059;-60
2023/02/03 05:07:06;;;;;;;;;;;26.70;96.70;;;;;;5028402;28;20287;-60
2023/02/03 05:09:33;;;;;;;;;;;26.70;96.40;;;;;;5013066;28;20390;-59
2023/02/03 05:11:59;;;;;;;;;;;26.80;96.20;;;;;;5013282;28;20376;-60
2023/02/03 05:14:26;;;;;;;;;;;26.60;96.50;;;;;;5013214;28;19910;-60
2023/02/03 05:16:53;;;;;;;;;;;26.40;96.40;;;;;;5012474;28;19925;-61
2023/02/03 05:19:19;;;;;;;;;;;26.20;97.60;;;;;;5012833;28;19910;-59
2023/02/03 05:21:47;;;;;;;;;;;26.30;97.10;;;;;;5013170;28;19913;-60
2023/02/03 05:24:14;;;;;;;;;;;26.30;97.20;;;;;;5012911;28;19949;-60
2023/02/03 05:26:41;;;;;;;;;;;26.50;97.00;;;;;;5027577;28;19918;-63
2023/02/03 05:29:09;;;;;;;;;;;26.50;96.40;;;;;;5012690;28;19909;-60
2023/02/03 05:31:36;;;;;;;;;;;26.40;97.10;;;;;;5012364;28;20315;-61
2023/02/03 05:34:02;;;;;;;;;;;26.50;97.20;;;;;;5012495;28;19953;-60
2023/02/03 05:36:29;;;;;;;;;;;26.50;97.50;;;;;;5012584;28;19913;-62
2023/02/03 05:38:56;;;;;;;;;;;26.50;97.30;;;;;;5012614;28;20379;-60
2023/02/03 05:44:07;;;;;;;;;;;26.50;97.80;;;;;;5013050;28;19987;-61
2023/02/03 05:46:34;;;;;;;;;;;26.30;98.40;;;;;;5012060;28;19910;-61
2023/02/03 05:49:03;;;;;;;;;;;26.30;99.00;;;;;;5012454;28;19910;-63
2023/02/03 05:51:30;;;;;;;;;;;26.30;98.70;;;;;;5009578;28;20000;-61
2023/02/03 05:53:57;;;;;;;;;;;26.30;98.90;;;;;;5010521;28;19999;-61
2023/02/03 05:56:24;;;;;;;;;;;26.30;98.90;;;;;;5010085;28;19909;-60
2023/02/03 05:58:52;;;;;;;;;;;26.20;98.70;;;;;;5010459;28;20328;-61
2023/02/03 06:01:18;;;;;;;;;;;26.10;99.20;;;;;;5009815;28;19918;-64
2023/02/03 06:03:46;;;;;;;;;;;26.00;99.50;;;;;;5010422;28;20356;-60
2023/02/03 06:06:13;;;;;;;;;;;26.00;98.80;;;;;;5009800;28;19936;-60
2023/02/03 06:08:39;;;;;;;;;;;25.90;98.90;;;;;;5010270;28;19913;-60
2023/02/03 06:11:06;;;;;;;;;;;25.80;99.30;;;;;;5010137;28;19936;-60
2023/02/03 06:13:33;;;;;;;;;;;25.80;99.50;;;;;;5009322;28;19948;-63
2023/02/03 06:15:59;;;;;;;;;;;25.80;98.80;;;;;;5009434;28;20783;-60
2023/02/03 06:18:26;;;;;;;;;;;25.80;99.00;;;;;;5009489;28;19925;-59
2023/02/03 06:20:53;;;;;;;;;;;25.70;99.20;;;;;;5010062;28;19956;-60
2023/02/03 06:23:19;;;;;;;;;;;25.80;99.30;;;;;;5010061;28;19914;-64
2023/02/03 06:25:49;;;;;;;;;;;25.60;99.40;;;;;;5009558;28;19917;-61
2023/02/03 06:28:16;;;;;;;;;;;25.70;99.90;;;;;;5010010;28;20008;-61
2023/02/03 06:30:43;;;;;;;;;;;25.70;99.90;;;;;;5009832;28;19913;-61
2023/02/03 06:33:09;;;;;;;;;;;25.60;99.60;;;;;;5010077;28;19910;-61
2023/02/03 06:35:36;;;;;;;;;;;25.50;99.80;;;;;;5009708;28;19921;-66
2023/02/03 06:38:03;;;;;;;;;;;25.50;99.90;;;;;;5009702;28;20384;-60
2023/02/03 06:40:29;;;;;;;;;;;25.60;99.60;;;;;;5010075;28;19918;-60
2023/02/03 06:42:56;;;;;;;;;;;25.60;99.40;;;;;;5009905;28;20380;-60
2023/02/03 06:45:23;;;;;;;;;;;25.50;99.80;;;;;;5009319;28;19913;-60
2023/02/03 06:47:50;;;;;;;;;;;25.40;99.70;;;;;;5009402;28;19913;-60
2023/02/03 06:50:16;;;;;;;;;;;25.30;99.90;;;;;;5009776;28;20007;-60
2023/02/03 06:52:43;;;;;;;;;;;25.20;99.80;;;;;;5009896;28;20394;-60
2023/02/03 06:55:10;;;;;;;;;;;25.20;99.90;;;;;;5009636;28;19913;-60
2023/02/03 06:57:42;;;;;;;;;;;25.20;99.90;;;;;;5008673;28;19924;-60
2023/02/03 07:00:10;;;;;;;;;;;25.10;99.90;;;;;;5009848;28;20424;-60
2023/02/03 07:02:36;;;;;;;;;;;25.00;99.90;;;;;;5024352;28;19929;-63
2023/02/03 07:05:03;;;;;;;;;;;25.00;99.90;;;;;;5009813;28;19914;-59
2023/02/03 07:07:31;;;;;;;;;;;25.00;99.90;;;;;;5009348;28;19913;-60
2023/02/03 07:10:01;;;;;;;;;;;25.00;99.90;;;;;;5008597;28;21418;-61
2023/02/03 07:12:28;;;;;;;;;;;24.90;99.90;;;;;;5009803;28;19992;-61
2023/02/03 07:14:54;;;;;;;;;;;25.00;99.90;;;;;;5009685;28;19913;-60
2023/02/03 07:17:21;;;;;;;;;;;25.00;99.90;;;;;;5008810;28;19922;-59
2023/02/03 07:19:48;;;;;;;;;;;24.90;99.70;;;;;;5009626;28;19920;-61
2023/02/03 07:22:15;;;;;;;;;;;24.90;99.90;;;;;;5009319;28;19975;-60
2023/02/03 07:24:41;;;;;;;;;;;24.90;99.90;;;;;;5009783;28;19914;-60
2023/02/03 07:27:08;;;;;;;;;;;24.90;99.90;;;;;;5011973;28;20388;-59
2023/02/03 07:29:34;;;;;;;;;;;24.80;99.90;;;;;;5012983;28;19968;-60
2023/02/03 07:32:01;;;;;;;;;;;24.80;99.90;;;;;;5012962;28;19913;-60
2023/02/03 07:34:28;;;;;;;;;;;24.80;99.90;;;;;;5012625;28;19956;-60
2023/02/03 07:36:55;;;;;;;;;;;25.00;99.90;;;;;;5012212;28;19979;-60
2023/02/03 07:39:22;;;;;;;;;;;24.80;99.80;;;;;;5012636;28;19917;-61
2023/02/03 07:41:49;;;;;;;;;;;24.70;99.90;;;;;;5013000;28;20451;-60
2023/02/03 07:44:16;;;;;;;;;;;24.60;99.90;;;;;;5012816;28;19914;-60
2023/02/03 07:46:44;;;;;;;;;;;24.50;99.90;;;;;;5027467;28;19971;-60
2023/02/03 07:49:14;;;;;;;;;;;24.30;99.90;;;;;;5012349;28;19910;-60
2023/02/03 07:51:40;;;;;;;;;;;24.30;99.90;;;;;;5012693;28;19948;-60
2023/02/03 07:54:07;;;;;;;;;;;24.40;99.90;;;;;;5012674;28;19909;-60
2023/02/03 07:56:34;;;;;;;;;;;24.60;99.90;;;;;;5012385;28;19913;-60
2023/02/03 07:59:00;;;;;;;;;;;24.60;99.90;;;;;;5012772;28;19917;-59
2023/02/03 08:01:28;;;;;;;;;;;24.50;99.90;;;;;;5011803;28;20024;-60
2023/02/03 08:03:54;;;;;;;;;;;24.40;99.90;;;;;;5012295;28;20402;-61
2023/02/03 08:06:21;;;;;;;;;;;24.50;99.90;;;;;;5012151;28;19957;-61
2023/02/03 08:08:48;;;;;;;;;;;24.40;99.90;;;;;;5012407;28;19967;-60
2023/02/03 08:11:15;;;;;;;;;;;24.40;99.90;;;;;;5013144;28;19909;-61
2023/02/03 08:13:42;;;;;;;;;;;24.40;99.90;;;;;;5014279;28;19940;-61
2023/02/03 08:16:09;;;;;;;;;;;24.50;99.90;;;;;;5013803;28;19916;-61
2023/02/03 08:18:36;;;;;;;;;;;24.40;99.90;;;;;;5014265;28;19929;-60
2023/02/03 08:21:03;;;;;;;;;;;24.30;99.90;;;;;;5014258;28;20339;-63
2023/02/03 08:23:30;;;;;;;;;;;24.30;99.90;;;;;;5013806;28;19913;-60
2023/02/03 08:25:57;;;;;;;;;;;24.30;99.90;;;;;;5006477;28;19913;-61
2023/02/03 08:28:24;;;;;;;;;;;24.20;99.90;;;;;;5005613;28;20447;-61
2023/02/03 08:30:50;;;;;;;;;;;24.20;99.90;;;;;;5005531;28;19995;-61
2023/02/03 08:33:17;;;;;;;;;;;24.20;99.90;;;;;;5005208;28;20655;-61
2023/02/03 08:35:47;;;;;;;;;;;24.20;99.90;;;;;;5005338;28;19913;-60
2023/02/03 08:38:14;;;;;;;;;;;24.10;99.90;;;;;;5004402;28;19999;-60
2023/02/03 08:40:41;;;;;;;;;;;24.10;99.90;;;;;;5005262;28;20016;-60
2023/02/03 08:43:08;;;;;;;;;;;24.10;99.90;;;;;;5005275;28;19913;-61
2023/02/03 08:45:35;;;;;;;;;;;24.00;99.90;;;;;;5004518;28;20064;-61
2023/02/03 08:48:01;;;;;;;;;;;24.00;99.90;;;;;;5005715;28;19913;-61
2023/02/03 08:50:28;;;;;;;;;;;24.00;99.90;;;;;;5005152;28;19918;-67
2023/02/03 08:52:55;;;;;;;;;;;23.90;99.90;;;;;;5004919;28;19991;-61
2023/02/03 08:55:23;;;;;;;;;;;23.90;99.90;;;;;;5005198;28;20372;-61
2023/02/03 08:57:50;;;;;;;;;;;23.90;99.90;;;;;;5004705;28;20531;-66
2023/02/03 09:00:16;;;;;;;;;;;23.80;99.90;;;;;;5004659;28;19921;-62
2023/02/03 09:02:43;;;;;;;;;;;23.90;99.90;;;;;;5004684;28;19964;-61
2023/02/03 09:05:10;;;;;;;;;;;23.90;99.90;;;;;;5004424;28;19921;-64
2023/02/03 09:07:36;;;;;;;;;;;23.80;99.90;;;;;;5003220;28;19914;-61
2023/02/03 09:10:03;;;;;;;;;;;23.70;99.90;;;;;;5004366;28;20016;-64
2023/02/03 09:12:30;;;;;;;;;;;23.60;99.90;;;;;;5004315;28;20337;-66
2023/02/03 09:14:57;;;;;;;;;;;23.60;99.90;;;;;;5004644;28;19913;-62
2023/02/03 09:17:23;;;;;;;;;;;23.60;99.90;;;;;;5003891;28;19921;-61
2023/02/03 09:19:50;;;;;;;;;;;23.70;99.90;;;;;;5003687;28;19980;-61
2023/02/03 09:22:16;;;;;;;;;;;23.70;99.90;;;;;;5005522;28;19946;-61
2023/02/03 09:24:43;;;;;;;;;;;23.60;99.90;;;;;;5012396;28;19913;-61
2023/02/03 09:27:10;;;;;;;;;;;23.70;99.90;;;;;;5012170;28;19920;-63
2023/02/03 09:29:37;;;;;;;;;;;23.80;99.90;;;;;;5012837;28;20261;-60
2023/02/03 09:32:07;;;;;;;;;;;23.70;99.90;;;;;;5012753;28;19956;-60
2023/02/03 09:34:34;;;;;;;;;;;23.70;99.90;;;;;;5012869;28;19915;-61
2023/02/03 09:37:01;;;;;;;;;;;23.70;99.90;;;;;;5012445;28;19922;-62
2023/02/03 09:39:27;;;;;;;;;;;23.80;99.90;;;;;;5012740;28;20321;-60
2023/02/03 09:42:07;;;;;;;;;;;23.70;99.90;;;;;;5012900;28;19957;-60
2023/02/03 09:44:46;;;;;;;;;;;23.70;99.90;;;;;;5012811;28;19968;-61
2023/02/03 09:47:21;;;;;;;;;;;23.60;99.90;;;;;;5012198;28;19925;-60
2023/02/03 09:49:52;;;;;;;;;;;23.60;99.90;;;;;;5012566;28;19913;-60
2023/02/03 09:52:23;;;;;;;;;;;23.60;99.90;;;;;;5012636;28;19910;-60
2023/02/03 09:54:49;;;;;;;;;;;23.60;99.90;;;;;;5012479;28;19914;-60
2023/02/03 09:57:24;;;;;;;;;;;23.60;99.90;;;;;;5012061;28;19956;-63
2023/02/03 09:59:51;;;;;;;;;;;23.60;99.90;;;;;;5012410;28;19909;-61
2023/02/03 10:02:35;;;;;;;;;;;23.70;99.90;;;;;;5012245;28;19925;-60
2023/02/03 10:05:08;;;;;;;;;;;23.70;99.90;;;;;;5012506;28;19910;-61
2023/02/03 10:07:37;;;;;;;;;;;23.70;99.90;;;;;;5011945;28;20312;-61
2023/02/03 10:10:13;;;;;;;;;;;23.60;99.90;;;;;;5012267;28;19944;-60
2023/02/03 10:12:47;;;;;;;;;;;23.70;99.90;;;;;;5012387;28;20297;-64
2023/02/03 10:15:16;;;;;;;;;;;23.60;99.90;;;;;;5012015;28;19917;-61
2023/02/03 10:17:46;;;;;;;;;;;23.70;99.90;;;;;;5012275;28;20395;-60
2023/02/03 10:20:16;;;;;;;;;;;23.70;99.90;;;;;;5012460;28;20459;-64
2023/02/03 10:22:51;;;;;;;;;;;23.60;99.90;;;;;;5012185;28;19913;-60
2023/02/03 10:25:30;;;;;;;;;;;23.60;99.90;;;;;;5011619;28;20335;-61
2023/02/03 10:28:00;;;;;;;;;;;23.80;99.90;;;;;;5012092;28;19921;-61
2023/02/03 10:30:28;;;;;;;;;;;23.70;99.90;;;;;;5011968;28;19909;-61
2023/02/03 10:33:30;;;;;;;;;;;23.70;99.90;;;;;;5011980;28;20474;-60
2023/02/03 10:36:04;;;;;;;;;;;23.70;99.90;;;;;;4970433;28;19917;-61
2023/02/03 10:38:33;;;;;;;;;;;23.70;99.90;;;;;;5005774;28;20020;-61
2023/02/03 10:41:00;;;;;;;;;;;23.70;99.90;;;;;;5012241;28;19909;-62
2023/02/03 10:43:46;;;;;;;;;;;23.70;99.90;;;;;;5012044;28;19917;-60
2023/02/03 10:46:21;;;;;;;;;;;23.70;99.90;;;;;;5011648;28;20403;-61
2023/02/03 10:48:48;;;;;;;;;;;23.70;99.90;;;;;;5011918;28;19913;-64
2023/02/03 10:51:18;;;;;;;;;;;23.70;99.90;;;;;;5011891;28;20028;-61
2023/02/03 10:53:47;;;;;;;;;;;23.70;99.90;;;;;;5012035;28;20004;-61
2023/02/03 10:56:17;;;;;;;;;;;23.70;99.90;;;;;;5011589;28;19913;-61
2023/02/03 10:58:48;;;;;;;;;;;23.70;99.90;;;;;;5011699;28;19921;-61
2023/02/03 11:01:16;;;;;;;;;;;23.80;99.90;;;;;;5014030;28;19927;-60
2023/02/03 11:04:03;;;;;;;;;;;23.80;99.90;;;;;;5015715;28;19921;-62
2023/02/03 11:06:30;;;;;;;;;;;23.80;99.90;;;;;;5015484;28;19914;-61
2023/02/03 11:08:57;;;;;;;;;;;23.70;99.90;;;;;;5015581;28;19916;-63
2023/02/03 11:11:30;;;;;;;;;;;23.80;99.90;;;;;;4996040;28;19910;-65
2023/02/03 11:14:02;;;;;;;;;;;23.80;99.90;;;;;;4996125;28;19917;-63
2023/02/03 11:16:30;;;;;;;;;;;23.80;99.90;;;;;;4995660;28;19913;-60
2023/02/03 11:19:02;;;;;;;;;;;23.80;99.90;;;;;;4995784;28;19918;-60
2023/02/03 11:21:31;;;;;;;;;;;23.80;99.90;;;;;;4995536;28;19949;-60
2023/02/03 11:23:57;;;;;;;;;;;23.80;99.90;;;;;;4994648;28;20407;-60
2023/02/03 11:26:26;;;;;;;;;;;23.80;99.70;;;;;;4995645;28;20344;-62
2023/02/03 11:28:55;;;;;;;;;;;23.80;99.70;;;;;;4995614;28;20296;-63
2023/02/03 11:31:24;;;;;;;;;;;23.80;99.50;;;;;;4995496;28;19941;-62
2023/02/03 11:33:53;;;;;;;;;;;23.80;99.40;;;;;;4995594;28;19910;-60
2023/02/03 11:36:26;;;;;;;;;;;23.90;99.60;;;;;;4995252;28;19918;-64
2023/02/03 11:39:07;;;;;;;;;;;23.80;99.90;;;;;;4995442;28;19921;-61
2023/02/03 11:41:36;;;;;;;;;;;23.80;99.50;;;;;;4993595;28;20024;-62
2023/02/03 11:44:10;;;;;;;;;;;23.80;99.50;;;;;;4986477;28;20733;-61
2023/02/03 11:46:37;;;;;;;;;;;23.90;99.90;;;;;;4986956;28;20004;-64
2023/02/03 11:49:12;;;;;;;;;;;23.90;99.80;;;;;;4987087;28;20466;-60
2023/02/03 11:51:49;;;;;;;;;;;23.90;99.90;;;;;;4987152;28;19921;-61
2023/02/03 11:54:16;;;;;;;;;;;23.90;99.80;;;;;;5001359;28;19922;-61
2023/02/03 11:56:57;;;;;;;;;;;23.90;99.90;;;;;;4986361;28;19921;-61
2023/02/03 11:59:36;;;;;;;;;;;23.90;99.90;;;;;;5005471;28;19922;-64
2023/02/03 12:02:06;;;;;;;;;;;23.90;99.50;;;;;;5006307;28;20007;-61
2023/02/03 12:04:38;;;;;;;;;;;23.80;99.90;;;;;;5006548;28;19920;-61
2023/02/03 12:07:08;;;;;;;;;;;23.80;99.90;;;;;;5005617;28;19978;-64
2023/02/03 12:09:51;;;;;;;;;;;23.80;99.90;;;;;;5002506;28;19971;-62
2023/02/03 12:12:32;;;;;;;;;;;23.90;99.60;;;;;;5004805;28;19956;-61
2023/02/03 12:15:11;;;;;;;;;;;23.90;99.90;;;;;;5005917;28;19995;-60
2023/02/03 12:17:37;;;;;;;;;;;23.90;99.90;;;;;;5005769;28;20826;-66
2023/02/03 12:20:13;;;;;;;;;;;23.90;99.90;;;;;;5006077;28;19913;-61
2023/02/03 12:22:52;;;;;;;;;;;23.90;99.60;;;;;;5005993;28;19914;-61
2023/02/03 12:25:27;;;;;;;;;;;23.80;99.60;;;;;;5020535;28;19918;-65
2023/02/03 12:28:03;;;;;;;;;;;23.70;99.70;;;;;;5006107;28;20000;-68
2023/02/03 12:30:33;;;;;;;;;;;23.70;99.50;;;;;;5005746;28;20681;-60
2023/02/03 12:33:04;;;;;;;;;;;23.70;99.30;;;;;;5005781;28;19913;-61
2023/02/03 12:35:45;;;;;;;;;;;23.80;99.90;;;;;;5005200;28;20276;-60
2023/02/03 12:38:15;;;;;;;;;;;23.80;99.90;;;;;;5005783;28;19922;-60
2023/02/03 12:40:54;;;;;;;;;;;23.50;99.90;;;;;;5005599;28;19914;-61
2023/02/03 12:43:24;;;;;;;;;;;23.20;99.90;;;;;;5005265;28;19917;-61
2023/02/03 12:45:54;;;;;;;;;;;22.70;99.90;;;;;;5005670;28;19921;-62
2023/02/03 12:48:30;;;;;;;;;;;22.30;99.90;;;;;;5005508;28;19913;-65
2023/02/03 12:51:00;;;;;;;;;;;22.10;99.90;;;;;;5005687;28;20328;-61
2023/02/03 12:53:35;;;;;;;;;;;21.90;99.90;;;;;;5005275;28;19921;-66
2023/02/03 12:56:13;;;;;;;;;;;21.50;99.90;;;;;;5004882;28;19920;-60
2023/02/03 12:58:51;;;;;;;;;;;21.20;99.90;;;;;;5005350;28;20292;-60
2023/02/03 13:01:31;;;;;;;;;;;20.80;99.90;;;;;;5004547;28;19925;-61
2023/02/03 13:04:04;;;;;;;;;;;20.60;99.90;;;;;;5005206;28;19921;-61
2023/02/03 13:07:09;;;;;;;;;;;20.50;99.90;;;;;;5004934;28;19964;-65
2023/02/03 13:09:36;;;;;;;;;;;20.60;99.90;;;;;;4943640;29;19914;-64
2023/02/03 13:12:12;;;;;;;;;;;20.70;99.90;;;;;;4943524;29;19921;-61
2023/02/03 13:14:44;;;;;;;;;;;20.80;99.90;;;;;;4976523;28;19968;-61
2023/02/03 13:17:30;;;;;;;;;;;21.00;99.90;;;;;;5004795;28;19921;-62
2023/02/03 13:19:59;;;;;;;;;;;21.00;99.90;;;;;;5010804;28;19909;-62
2023/02/03 13:22:26;;;;;;;;;;;21.10;99.90;;;;;;5012909;28;19913;-61
2023/02/03 13:24:59;;;;;;;;;;;21.00;99.90;;;;;;5013321;28;19921;-61
2023/02/03 13:27:32;;;;;;;;;;;21.10;99.90;;;;;;5013065;28;19983;-61
2023/02/03 13:30:18;;;;;;;;;;;21.00;99.90;;;;;;5013192;28;19914;-61
2023/02/03 13:32:48;;;;;;;;;;;20.90;99.90;;;;;;5013164;28;20394;-63
2023/02/03 13:35:35;;;;;;;;;;;21.00;99.90;;;;;;5012647;28;19928;-60
2023/02/03 13:38:28;;;;;;;;;;;21.10;99.90;;;;;;4982221;28;19928;-60
2023/02/03 13:41:12;;;;;;;;;;;21.10;99.90;;;;;;5010333;28;19922;-60
2023/02/03 13:43:43;;;;;;;;;;;21.00;99.90;;;;;;5012847;28;20374;-61
2023/02/03 13:46:18;;;;;;;;;;;21.00;99.90;;;;;;5012693;28;19911;-60
2023/02/03 13:48:46;;;;;;;;;;;21.10;99.90;;;;;;5012850;28;19921;-60
2023/02/03 13:51:15;;;;;;;;;;;21.20;99.90;;;;;;5012747;28;19910;-61
2023/02/03 13:53:43;;;;;;;;;;;21.40;99.90;;;;;;5012791;28;19948;-61
2023/02/03 13:56:20;;;;;;;;;;;21.40;99.90;;;;;;5012329;28;19924;-61
2023/02/03 13:59:01;;;;;;;;;;;21.20;99.90;;;;;;5012597;28;20360;-61
2023/02/03 14:01:28;;;;;;;;;;;21.10;99.90;;;;;;5012218;28;19964;-61
2023/02/03 14:03:56;;;;;;;;;;;21.10;99.90;;;;;;5012675;28;20296;-61
2023/02/03 14:06:44;;;;;;;;;;;21.00;99.90;;;;;;5012386;28;19910;-60
2023/02/03 14:09:20;;;;;;;;;;;21.10;99.90;;;;;;5002419;28;19909;-61
2023/02/03 14:11:51;;;;;;;;;;;21.10;99.90;;;;;;5012476;28;19917;-61
2023/02/03 14:14:20;;;;;;;;;;;21.00;99.90;;;;;;5012269;28;19909;-60
2023/02/03 14:16:51;;;;;;;;;;;21.00;99.90;;;;;;5012126;28;19949;-64
2023/02/03 14:19:32;;;;;;;;;;;21.00;99.90;;;;;;5012140;28;19917;-60
2023/02/03 14:22:07;;;;;;;;;;;21.00;99.90;;;;;;5012497;28;19913;-60
2023/02/03 14:24:36;;;;;;;;;;;21.00;99.90;;;;;;5012465;28;19913;-60
2023/02/03 14:27:04;;;;;;;;;;;20.90;99.90;;;;;;5012131;28;19918;-60
2023/02/03 14:29:31;;;;;;;;;;;20.90;99.90;;;;;;5011922;28;19937;-61
2023/02/03 14:32:05;;;;;;;;;;;21.00;99.90;;;;;;5012314;28;19937;-60
2023/02/03 14:34:37;;;;;;;;;;;21.00;99.90;;;;;;5010693;28;19910;-60
2023/02/03 14:37:09;;;;;;;;;;;21.00;99.90;;;;;;5011772;28;19953;-60